sensor_id;sensor_type;location;lat;lon;timestamp;pressure;altitude;pressure_sealevel;temperature;humidity
31005;BME280;17676;52.254;4.490;2023-03-26T00:01:09;100655.84;;;9.32;100.00
31005;BME280;17676;52.254;4.490;2023-03-26T00:03:38;100660.22;;;9.33;100.00
31005;BME280;17676;52.254;4.490;2023-03-26T00:06:10;100653.56;;;9.29;100.00
31005;BME280;17676;52.254;4.490;2023-03-26T00:08:39;100661.25;;;9.32;100.00
31005;BME280;17676;52.254;4.490;2023-03-26T00:11:07;100662.50;;;9.36;100.00
31005;BME280;17676;52.254;4.490;2023-03-26T00:13:33;100649.00;;;9.36;100.00
31005;BME280;17676;52.254;4.490;2023-03-26T00:15:59;100658.78;;;9.37;100.00
31005;BME280;17676;52.254;4.490;2023-03-26T00:18:25;100652.13;;;9.33;100.00
31005;BME280;17676;52.254;4.490;2023-03-26T00:20:58;100640.28;;;9.27;100.00
31005;BME280;17676;52.254;4.490;2023-03-26T00:23:25;100636.72;;;9.27;100.00
31005;BME280;17676;52.254;4.490;2023-03-26T00:25:51;100647.13;;;9.30;100.00
31005;BME280;17676;52.254;4.490;2023-03-26T00:28:18;100642.78;;;9.29;100.00
31005;BME280;17676;52.254;4.490;2023-03-26T00:30:46;100630.06;;;9.23;100.00
31005;BME280;17676;52.254;4.490;2023-03-26T00:33:12;100632.56;;;9.18;100.00
31005;BME280;17676;52.254;4.490;2023-03-26T00:35:43;100631.91;;;9.16;100.00
31005;BME280;17676;52.254;4.490;2023-03-26T00:38:13;100630.91;;;9.17;100.00
31005;BME280;17676;52.254;4.490;2023-03-26T00:40:39;100632.97;;;9.15;100.00
31005;BME280;17676;52.254;4.490;2023-03-26T00:43:11;100628.22;;;9.17;100.00
31005;BME280;17676;52.254;4.490;2023-03-26T00:45:47;100616.38;;;9.18;100.00
31005;BME280;17676;52.254;4.490;2023-03-26T00:48:14;100622.81;;;9.17;100.00
31005;BME280;17676;52.254;4.490;2023-03-26T00:50:41;100615.97;;;9.14;100.00
31005;BME280;17676;52.254;4.490;2023-03-26T00:53:09;100615.91;;;9.08;100.00
31005;BME280;17676;52.254;4.490;2023-03-26T00:55:39;100613.44;;;9.06;100.00
31005;BME280;17676;52.254;4.490;2023-03-26T00:58:05;100602.59;;;8.93;100.00
31005;BME280;17676;52.254;4.490;2023-03-26T01:00:35;100610.09;;;8.98;100.00
31005;BME280;17676;52.254;4.490;2023-03-26T01:03:03;100615.28;;;8.93;100.00
31005;BME280;17676;52.254;4.490;2023-03-26T01:10:52;100604.22;;;8.81;100.00
31005;BME280;17676;52.254;4.490;2023-03-26T01:13:33;100603.41;;;8.81;100.00
31005;BME280;17676;52.254;4.490;2023-03-26T01:16:00;100593.19;;;8.70;100.00
31005;BME280;17676;52.254;4.490;2023-03-26T01:18:30;100593.59;;;8.67;100.00
31005;BME280;17676;52.254;4.490;2023-03-26T01:20:59;100586.72;;;8.64;100.00
31005;BME280;17676;52.254;4.490;2023-03-26T01:24:08;100587.75;;;8.57;100.00
31005;BME280;17676;52.254;4.490;2023-03-26T01:32:21;100575.66;;;8.40;100.00
31005;BME280;17676;52.254;4.490;2023-03-26T01:37:46;100561.28;;;8.26;100.00
31005;BME280;17676;52.254;4.490;2023-03-26T01:40:31;100564.16;;;8.25;100.00
31005;BME280;17676;52.254;4.490;2023-03-26T01:43:30;100558.25;;;8.15;100.00
31005;BME280;17676;52.254;4.490;2023-03-26T01:46:02;100553.28;;;8.12;100.00
31005;BME280;17676;52.254;4.490;2023-03-26T01:48:37;100558.06;;;8.16;100.00
31005;BME280;17676;52.254;4.490;2023-03-26T01:51:07;100558.25;;;8.15;100.00
31005;BME280;17676;52.254;4.490;2023-03-26T01:53:36;100562.09;;;8.27;100.00
31005;BME280;17676;52.254;4.490;2023-03-26T01:56:25;100558.78;;;8.25;100.00
31005;BME280;17676;52.254;4.490;2023-03-26T02:02:06;100539.53;;;8.34;100.00
31005;BME280;17676;52.254;4.490;2023-03-26T02:04:45;100550.34;;;8.41;100.00
31005;BME280;17676;52.254;4.490;2023-03-26T02:10:08;100540.63;;;8.53;100.00
31005;BME280;17676;52.254;4.490;2023-03-26T02:12:36;100538.16;;;8.51;100.00
31005;BME280;17676;52.254;4.490;2023-03-26T02:15:01;100539.00;;;8.58;100.00
31005;BME280;17676;52.254;4.490;2023-03-26T02:17:28;100526.16;;;8.67;100.00
31005;BME280;17676;52.254;4.490;2023-03-26T02:19:55;100526.78;;;8.62;100.00
31005;BME280;17676;52.254;4.490;2023-03-26T02:22:21;100520.91;;;8.52;100.00
31005;BME280;17676;52.254;4.490;2023-03-26T02:24:47;100520.09;;;8.52;100.00
31005;BME280;17676;52.254;4.490;2023-03-26T02:27:13;100519.94;;;8.60;100.00
31005;BME280;17676;52.254;4.490;2023-03-26T02:29:43;100522.44;;;8.68;100.00
31005;BME280;17676;52.254;4.490;2023-03-26T02:32:09;100512.91;;;8.72;100.00
31005;BME280;17676;52.254;4.490;2023-03-26T02:34:42;100517.44;;;8.71;100.00
31005;BME280;17676;52.254;4.490;2023-03-26T02:37:09;100517.66;;;8.70;100.00
31005;BME280;17676;52.254;4.490;2023-03-26T02:39:34;100517.44;;;8.65;100.00
31005;BME280;17676;52.254;4.490;2023-03-26T02:42:00;100513.50;;;8.67;100.00
31005;BME280;17676;52.254;4.490;2023-03-26T02:44:25;100511.66;;;8.68;100.00
31005;BME280;17676;52.254;4.490;2023-03-26T02:46:51;100513.31;;;8.69;100.00
31005;BME280;17676;52.254;4.490;2023-03-26T02:49:17;100505.00;;;8.70;100.00
31005;BME280;17676;52.254;4.490;2023-03-26T02:51:45;100509.56;;;8.83;100.00
31005;BME280;17676;52.254;4.490;2023-03-26T02:54:12;100507.53;;;8.85;100.00
31005;BME280;17676;52.254;4.490;2023-03-26T02:56:40;100500.88;;;8.87;100.00
31005;BME280;17676;52.254;4.490;2023-03-26T02:59:06;100502.53;;;8.82;100.00
31005;BME280;17676;52.254;4.490;2023-03-26T03:01:31;100490.09;;;8.81;100.00
31005;BME280;17676;52.254;4.490;2023-03-26T03:04:00;100490.09;;;8.94;100.00
31005;BME280;17676;52.254;4.490;2023-03-26T03:06:26;100494.44;;;8.95;100.00
31005;BME280;17676;52.254;4.490;2023-03-26T03:08:55;100477.63;;;8.93;100.00
31005;BME280;17676;52.254;4.490;2023-03-26T03:11:20;100473.91;;;9.07;100.00
31005;BME280;17676;52.254;4.490;2023-03-26T03:13:49;100474.94;;;9.06;100.00
31005;BME280;17676;52.254;4.490;2023-03-26T03:16:15;100479.69;;;9.04;100.00
31005;BME280;17676;52.254;4.490;2023-03-26T03:18:41;100469.34;;;8.94;100.00
31005;BME280;17676;52.254;4.490;2023-03-26T03:21:07;100465.59;;;8.95;100.00
31005;BME280;17676;52.254;4.490;2023-03-26T03:23:32;100467.66;;;8.87;100.00
31005;BME280;17676;52.254;4.490;2023-03-26T03:25:58;100460.00;;;8.90;100.00
31005;BME280;17676;52.254;4.490;2023-03-26T03:28:24;100453.16;;;9.01;100.00
31005;BME280;17676;52.254;4.490;2023-03-26T03:30:50;100451.91;;;8.97;100.00
31005;BME280;17676;52.254;4.490;2023-03-26T03:33:19;100448.56;;;8.95;100.00
31005;BME280;17676;52.254;4.490;2023-03-26T03:35:46;100453.97;;;8.95;100.00
31005;BME280;17676;52.254;4.490;2023-03-26T03:38:17;100443.16;;;8.95;100.00
31005;BME280;17676;52.254;4.490;2023-03-26T03:40:43;100440.66;;;8.93;100.00
31005;BME280;17676;52.254;4.490;2023-03-26T03:43:09;100448.16;;;8.78;100.00
31005;BME280;17676;52.254;4.490;2023-03-26T03:45:35;100439.03;;;8.79;100.00
31005;BME280;17676;52.254;4.490;2023-03-26T03:48:01;100443.81;;;8.84;100.00
31005;BME280;17676;52.254;4.490;2023-03-26T03:50:31;100442.34;;;8.88;100.00
31005;BME280;17676;52.254;4.490;2023-03-26T03:52:56;100439.44;;;8.96;100.00
31005;BME280;17676;52.254;4.490;2023-03-26T03:55:23;100433.22;;;9.02;100.00
31005;BME280;17676;52.254;4.490;2023-03-26T03:57:52;100430.91;;;9.12;100.00
31005;BME280;17676;52.254;4.490;2023-03-26T04:00:17;100428.66;;;9.09;100.00
31005;BME280;17676;52.254;4.490;2023-03-26T04:02:43;100429.47;;;9.09;100.00
31005;BME280;17676;52.254;4.490;2023-03-26T04:05:10;100429.47;;;9.09;100.00
31005;BME280;17676;52.254;4.490;2023-03-26T04:07:37;100421.97;;;9.18;100.00
31005;BME280;17676;52.254;4.490;2023-03-26T04:10:03;100410.34;;;9.17;100.00
31005;BME280;17676;52.254;4.490;2023-03-26T04:12:30;100409.09;;;9.20;100.00
31005;BME280;17676;52.254;4.490;2023-03-26T04:14:56;100406.19;;;9.21;100.00
31005;BME280;17676;52.254;4.490;2023-03-26T04:17:23;100407.03;;;9.22;100.00
31005;BME280;17676;52.254;4.490;2023-03-26T04:19:50;100409.09;;;9.20;100.00
31005;BME280;17676;52.254;4.490;2023-03-26T04:22:17;100400.78;;;9.21;100.00
31005;BME280;17676;52.254;4.490;2023-03-26T04:24:44;100411.16;;;9.24;100.00
31005;BME280;17676;52.254;4.490;2023-03-26T04:27:18;100403.06;;;9.24;100.00
31005;BME280;17676;52.254;4.490;2023-03-26T04:29:47;100398.72;;;9.17;100.00
31005;BME280;17676;52.254;4.490;2023-03-26T04:32:24;100390.81;;;9.22;100.00
31005;BME280;17676;52.254;4.490;2023-03-26T04:34:54;100386.69;;;9.19;100.00
31005;BME280;17676;52.254;4.490;2023-03-26T04:37:36;100386.66;;;9.26;100.00
31005;BME280;17676;52.254;4.490;2023-03-26T04:40:11;100382.50;;;9.30;100.00
31005;BME280;17676;52.254;4.490;2023-03-26T04:42:38;100371.88;;;9.35;100.00
31005;BME280;17676;52.254;4.490;2023-03-26T04:45:11;100365.69;;;9.34;100.00
31005;BME280;17676;52.254;4.490;2023-03-26T04:47:40;100362.56;;;9.24;100.00
31005;BME280;17676;52.254;4.490;2023-03-26T04:50:10;100363.81;;;9.22;100.00
31005;BME280;17676;52.254;4.490;2023-03-26T04:52:36;100370.88;;;9.23;100.00
31005;BME280;17676;52.254;4.490;2023-03-26T04:55:03;100368.59;;;9.26;100.00
31005;BME280;17676;52.254;4.490;2023-03-26T04:57:36;100361.31;;;9.27;100.00
31005;BME280;17676;52.254;4.490;2023-03-26T05:00:05;100358.41;;;9.28;100.00
31005;BME280;17676;52.254;4.490;2023-03-26T05:02:43;100355.50;;;9.30;100.00
31005;BME280;17676;52.254;4.490;2023-03-26T05:05:10;100348.22;;;9.24;100.00
31005;BME280;17676;52.254;4.490;2023-03-26T05:07:36;100347.22;;;9.25;100.00
31005;BME280;17676;52.254;4.490;2023-03-26T05:10:03;100344.69;;;9.30;100.00
31005;BME280;17676;52.254;4.490;2023-03-26T05:12:29;100341.38;;;9.28;100.00
31005;BME280;17676;52.254;4.490;2023-03-26T05:14:54;100341.19;;;9.23;100.00
31005;BME280;17676;52.254;4.490;2023-03-26T05:17:21;100336.66;;;9.17;100.00
31005;BME280;17676;52.254;4.490;2023-03-26T05:19:48;100338.50;;;9.16;100.00
31005;BME280;17676;52.254;4.490;2023-03-26T05:22:13;100333.72;;;9.25;100.00
31005;BME280;17676;52.254;4.490;2023-03-26T05:24:41;100332.66;;;9.26;100.00
31005;BME280;17676;52.254;4.490;2023-03-26T05:27:06;100326.22;;;9.27;100.00
31005;BME280;17676;52.254;4.490;2023-03-26T05:29:31;100328.09;;;9.20;100.00
31005;BME280;17676;52.254;4.490;2023-03-26T05:31:57;100325.41;;;9.20;100.00
31005;BME280;17676;52.254;4.490;2023-03-26T05:34:22;100321.47;;;9.16;100.00
31005;BME280;17676;52.254;4.490;2023-03-26T05:36:50;100326.69;;;9.11;100.00
31005;BME280;17676;52.254;4.490;2023-03-26T05:39:16;100322.13;;;9.11;100.00
31005;BME280;17676;52.254;4.490;2023-03-26T05:41:41;100319.41;;;9.18;100.00
31005;BME280;17676;52.254;4.490;2023-03-26T05:44:07;100311.47;;;9.23;100.00
31005;BME280;17676;52.254;4.490;2023-03-26T05:46:32;100306.75;;;9.18;100.00
31005;BME280;17676;52.254;4.490;2023-03-26T05:49:21;100309.00;;;9.21;100.00
31005;BME280;17676;52.254;4.490;2023-03-26T05:51:47;100301.34;;;9.18;100.00
31005;BME280;17676;52.254;4.490;2023-03-26T05:54:12;100306.25;;;9.28;100.00
31005;BME280;17676;52.254;4.490;2023-03-26T05:56:38;100306.91;;;9.30;100.00
31005;BME280;17676;52.254;4.490;2023-03-26T05:59:04;100296.94;;;9.24;100.00
31005;BME280;17676;52.254;4.490;2023-03-26T06:01:30;100300.25;;;9.26;100.00
31005;BME280;17676;52.254;4.490;2023-03-26T06:03:57;100298.63;;;9.18;100.00
31005;BME280;17676;52.254;4.490;2023-03-26T06:06:24;100293.91;;;9.01;100.00
31005;BME280;17676;52.254;4.490;2023-03-26T06:08:51;100292.03;;;8.95;100.00
31005;BME280;17676;52.254;4.490;2023-03-26T06:11:18;100298.72;;;8.86;100.00
31005;BME280;17676;52.254;4.490;2023-03-26T06:13:45;100289.59;;;8.80;100.00
31005;BME280;17676;52.254;4.490;2023-03-26T06:16:12;100287.53;;;8.76;100.00
31005;BME280;17676;52.254;4.490;2023-03-26T06:18:38;100285.47;;;8.65;100.00
31005;BME280;17676;52.254;4.490;2023-03-26T06:21:05;100290.00;;;8.71;100.00
31005;BME280;17676;52.254;4.490;2023-03-26T06:23:31;100278.59;;;8.82;100.00
31005;BME280;17676;52.254;4.490;2023-03-26T06:25:57;100285.84;;;8.75;100.00
31005;BME280;17676;52.254;4.490;2023-03-26T06:28:23;100283.97;;;8.82;100.00
31005;BME280;17676;52.254;4.490;2023-03-26T06:30:49;100286.25;;;8.85;100.00
31005;BME280;17676;52.254;4.490;2023-03-26T06:33:15;100275.28;;;8.80;100.00
31005;BME280;17676;52.254;4.490;2023-03-26T06:35:47;100280.88;;;8.85;100.00
31005;BME280;17676;52.254;4.490;2023-03-26T06:38:14;100284.81;;;8.89;100.00
31005;BME280;17676;52.254;4.490;2023-03-26T06:40:40;100285.41;;;8.91;100.00
31005;BME280;17676;52.254;4.490;2023-03-26T06:43:05;100285.81;;;9.01;100.00
31005;BME280;17676;52.254;4.490;2023-03-26T06:45:32;100282.47;;;8.99;100.00
31005;BME280;17676;52.254;4.490;2023-03-26T06:47:58;100286.22;;;8.98;100.00
31005;BME280;17676;52.254;4.490;2023-03-26T06:50:25;100292.88;;;9.02;100.00
31005;BME280;17676;52.254;4.490;2023-03-26T06:52:53;100292.00;;;9.08;100.00
31005;BME280;17676;52.254;4.490;2023-03-26T06:55:18;100292.00;;;9.08;100.00
31005;BME280;17676;52.254;4.490;2023-03-26T06:57:54;100289.06;;;9.16;100.00
31005;BME280;17676;52.254;4.490;2023-03-26T07:00:23;100286.59;;;9.21;100.00
31005;BME280;17676;52.254;4.490;2023-03-26T07:02:48;100295.25;;;9.29;100.00
31005;BME280;17676;52.254;4.490;2023-03-26T07:05:14;100293.63;;;9.22;100.00
31005;BME280;17676;52.254;4.490;2023-03-26T07:07:40;100291.16;;;9.14;100.00
31005;BME280;17676;52.254;4.490;2023-03-26T07:10:06;100296.56;;;9.14;100.00
31005;BME280;17676;52.254;4.490;2023-03-26T07:12:32;100289.97;;;9.03;100.00
31005;BME280;17676;52.254;4.490;2023-03-26T07:14:59;100291.97;;;9.21;100.00
31005;BME280;17676;52.254;4.490;2023-03-26T07:17:27;100296.16;;;9.10;100.00
31005;BME280;17676;52.254;4.490;2023-03-26T07:19:54;100296.34;;;9.15;100.00
31005;BME280;17676;52.254;4.490;2023-03-26T07:22:24;100291.56;;;9.17;100.00
31005;BME280;17676;52.254;4.490;2023-03-26T07:24:50;100292.41;;;9.11;100.00
31005;BME280;17676;52.254;4.490;2023-03-26T07:27:26;100293.22;;;9.12;100.00
31005;BME280;17676;52.254;4.490;2023-03-26T07:30:16;100284.47;;;9.23;100.00
31005;BME280;17676;52.254;4.490;2023-03-26T07:38:12;100284.09;;;9.19;100.00
31005;BME280;17676;52.254;4.490;2023-03-26T07:43:53;100289.69;;;9.18;100.00
31005;BME280;17676;52.254;4.490;2023-03-26T07:46:28;100276.19;;;9.18;100.00
31005;BME280;17676;52.254;4.490;2023-03-26T07:48:58;100286.97;;;9.24;100.00
31005;BME280;17676;52.254;4.490;2023-03-26T07:51:26;100278.81;;;9.37;100.00
31005;BME280;17676;52.254;4.490;2023-03-26T07:53:52;100277.13;;;9.43;100.00
31005;BME280;17676;52.254;4.490;2023-03-26T07:56:31;100271.09;;;9.47;100.00
31005;BME280;17676;52.254;4.490;2023-03-26T08:16:06;100257.56;;;9.54;100.00
31005;BME280;17676;52.254;4.490;2023-03-26T08:21:35;100252.19;;;9.85;100.00
31005;BME280;17676;52.254;4.490;2023-03-26T08:24:40;100250.03;;;9.93;100.00
31005;BME280;17676;52.254;4.490;2023-03-26T08:28:03;100250.28;;;9.85;100.00
31005;BME280;17676;52.254;4.490;2023-03-26T08:30:22;100247.25;;;10.06;100.00
31005;BME280;17676;52.254;4.490;2023-03-26T08:32:54;100248.44;;;9.86;100.00
31005;BME280;17676;52.254;4.490;2023-03-26T08:35:22;100242.97;;;9.92;100.00
31005;BME280;17676;52.254;4.490;2023-03-26T08:37:48;100245.78;;;10.04;100.00
31005;BME280;17676;52.254;4.490;2023-03-26T08:40:19;100251.19;;;10.04;100.00
31005;BME280;17676;52.254;4.490;2023-03-26T08:45:55;100237.72;;;9.73;100.00
31005;BME280;17676;52.254;4.490;2023-03-26T08:48:49;100251.03;;;9.68;100.00
31005;BME280;17676;52.254;4.490;2023-03-26T08:51:30;100244.91;;;9.48;100.00
31005;BME280;17676;52.254;4.490;2023-03-26T09:00:09;100245.16;;;9.40;100.00
31005;BME280;17676;52.254;4.490;2023-03-26T09:26:09;100267.44;;;9.29;100.00
31005;BME280;17676;52.254;4.490;2023-03-26T09:28:54;100262.56;;;9.50;100.00
31005;BME280;17676;52.254;4.490;2023-03-26T09:38:04;100257.97;;;9.88;100.00
31005;BME280;17676;52.254;4.490;2023-03-26T09:40:39;100260.34;;;10.03;100.00
31005;BME280;17676;52.254;4.490;2023-03-26T09:43:52;100255.84;;;9.97;100.00
31005;BME280;17676;52.254;4.490;2023-03-26T09:55:09;100267.22;;;9.68;100.00
31005;BME280;17676;52.254;4.490;2023-03-26T10:03:07;100270.44;;;9.52;100.00
31005;BME280;17676;52.254;4.490;2023-03-26T10:05:51;100266.97;;;9.45;100.00
31005;BME280;17676;52.254;4.490;2023-03-26T10:17:52;100278.19;;;9.42;100.00
31005;BME280;17676;52.254;4.490;2023-03-26T10:29:56;100276.63;;;9.59;100.00
31005;BME280;17676;52.254;4.490;2023-03-26T10:37:54;100285.47;;;9.79;100.00
31005;BME280;17676;52.254;4.490;2023-03-26T10:46:17;100293.22;;;10.00;100.00
31005;BME280;17676;52.254;4.490;2023-03-26T10:57:02;100288.53;;;10.20;100.00
31005;BME280;17676;52.254;4.490;2023-03-26T10:59:44;100290.50;;;10.13;100.00
31005;BME280;17676;52.254;4.490;2023-03-26T11:02:28;100302.16;;;10.38;100.00
31005;BME280;17676;52.254;4.490;2023-03-26T11:08:05;100311.97;;;10.57;100.00
31005;BME280;17676;52.254;4.490;2023-03-26T11:11:00;100308.56;;;10.44;100.00
31005;BME280;17676;52.254;4.490;2023-03-26T11:13:50;100315.47;;;10.40;100.00
31005;BME280;17676;52.254;4.490;2023-03-26T11:27:14;100318.38;;;11.05;100.00
31005;BME280;17676;52.254;4.490;2023-03-26T11:30:10;100318.88;;;10.78;100.00
31005;BME280;17676;52.254;4.490;2023-03-26T11:32:52;100323.78;;;10.87;100.00
31005;BME280;17676;52.254;4.490;2023-03-26T11:35:44;100324.22;;;10.84;100.00
31005;BME280;17676;52.254;4.490;2023-03-26T11:38:29;100326.69;;;11.10;100.00
31005;BME280;17676;52.254;4.490;2023-03-26T11:41:02;100337.66;;;11.15;100.00
31005;BME280;17676;52.254;4.490;2023-03-26T11:43:33;100322.69;;;11.49;100.00
31005;BME280;17676;52.254;4.490;2023-03-26T11:46:04;100334.03;;;11.57;100.00
31005;BME280;17676;52.254;4.490;2023-03-26T11:48:53;100338.03;;;11.55;100.00
31005;BME280;17676;52.254;4.490;2023-03-26T11:51:41;100332.69;;;11.48;100.00
31005;BME280;17676;52.254;4.490;2023-03-26T11:54:11;100328.47;;;11.52;100.00
31005;BME280;17676;52.254;4.490;2023-03-26T12:02:38;100338.28;;;11.71;100.00
31005;BME280;17676;52.254;4.490;2023-03-26T12:05:21;100342.38;;;11.56;100.00
31005;BME280;17676;52.254;4.490;2023-03-26T12:08:00;100339.41;;;11.46;100.00
31005;BME280;17676;52.254;4.490;2023-03-26T12:10:35;100352.19;;;11.57;100.00
31005;BME280;17676;52.254;4.490;2023-03-26T12:13:32;100350.00;;;11.29;100.00
31005;BME280;17676;52.254;4.490;2023-03-26T12:16:17;100354.03;;;11.02;100.00
31005;BME280;17676;52.254;4.490;2023-03-26T12:18:44;100357.97;;;11.24;100.00
31005;BME280;17676;52.254;4.490;2023-03-26T12:21:17;100362.63;;;11.53;100.00
31005;BME280;17676;52.254;4.490;2023-03-26T12:23:56;100368.84;;;11.60;100.00
31005;BME280;17676;52.254;4.490;2023-03-26T12:26:41;100373.78;;;11.27;100.00
31005;BME280;17676;52.254;4.490;2023-03-26T12:29:12;100378.06;;;11.35;100.00
31005;BME280;17676;52.254;4.490;2023-03-26T12:32:04;100376.34;;;11.22;100.00
31005;BME280;17676;52.254;4.490;2023-03-26T12:34:40;100378.63;;;11.43;100.00
31005;BME280;17676;52.254;4.490;2023-03-26T12:37:07;100371.91;;;11.46;100.00
31005;BME280;17676;52.254;4.490;2023-03-26T12:40:05;100379.84;;;11.65;100.00
31005;BME280;17676;52.254;4.490;2023-03-26T12:42:39;100396.56;;;11.80;100.00
31005;BME280;17676;52.254;4.490;2023-03-26T12:45:05;100390.53;;;11.60;100.00
31005;BME280;17676;52.254;4.490;2023-03-26T12:47:31;100389.88;;;11.22;100.00
31005;BME280;17676;52.254;4.490;2023-03-26T12:49:57;100404.09;;;11.36;100.00
31005;BME280;17676;52.254;4.490;2023-03-26T12:57:43;100406.94;;;11.65;100.00
31005;BME280;17676;52.254;4.490;2023-03-26T13:00:27;100413.25;;;11.77;100.00
31005;BME280;17676;52.254;4.490;2023-03-26T13:03:16;100413.53;;;12.05;100.00
31005;BME280;17676;52.254;4.490;2023-03-26T13:05:56;100419.50;;;12.43;100.00
31005;BME280;17676;52.254;4.490;2023-03-26T13:14:38;100413.84;;;11.97;100.00
31005;BME280;17676;52.254;4.490;2023-03-26T13:17:16;100405.88;;;11.84;100.00
31005;BME280;17676;52.254;4.490;2023-03-26T13:23:20;100425.72;;;11.85;100.00
31005;BME280;17676;52.254;4.490;2023-03-26T13:26:00;100408.97;;;11.88;100.00
31005;BME280;17676;52.254;4.490;2023-03-26T13:28:33;100419.09;;;12.10;100.00
31005;BME280;17676;52.254;4.490;2023-03-26T13:31:31;100430.25;;;12.02;100.00
31005;BME280;17676;52.254;4.490;2023-03-26T13:34:58;100429.69;;;12.00;100.00
31005;BME280;17676;52.254;4.490;2023-03-26T13:37:04;100432.84;;;11.61;100.00
31005;BME280;17676;52.254;4.490;2023-03-26T13:42:45;100441.19;;;11.96;100.00
31005;BME280;17676;52.254;4.490;2023-03-26T13:48:03;100452.28;;;11.94;100.00
31005;BME280;17676;52.254;4.490;2023-03-26T13:50:33;100454.03;;;11.89;100.00
31005;BME280;17676;52.254;4.490;2023-03-26T13:53:13;100451.00;;;11.36;100.00
31005;BME280;17676;52.254;4.490;2023-03-26T13:55:47;100465.44;;;11.30;100.00
31005;BME280;17676;52.254;4.490;2023-03-26T13:58:55;100471.84;;;11.60;100.00
31005;BME280;17676;52.254;4.490;2023-03-26T14:01:38;100469.75;;;11.80;100.00
31005;BME280;17676;52.254;4.490;2023-03-26T14:06:51;100479.78;;;11.98;100.00
31005;BME280;17676;52.254;4.490;2023-03-26T14:17:54;100494.94;;;11.87;100.00
31005;BME280;17676;52.254;4.490;2023-03-26T14:40:28;100512.75;;;11.03;100.00
31005;BME280;17676;52.254;4.490;2023-03-26T14:46:09;100529.38;;;11.56;100.00
31005;BME280;17676;52.254;4.490;2023-03-26T14:54:18;100551.91;;;11.56;100.00
31005;BME280;17676;52.254;4.490;2023-03-26T15:00:00;100561.13;;;11.24;100.00
31005;BME280;17676;52.254;4.490;2023-03-26T15:05:57;100565.28;;;10.58;100.00
31005;BME280;17676;52.254;4.490;2023-03-26T15:09:16;100567.25;;;10.38;100.00
31005;BME280;17676;52.254;4.490;2023-03-26T15:11:52;100571.09;;;10.62;100.00
31005;BME280;17676;52.254;4.490;2023-03-26T15:14:42;100568.72;;;10.78;100.00
31005;BME280;17676;52.254;4.490;2023-03-26T15:17:32;100583.59;;;11.00;100.00
31005;BME280;17676;52.254;4.490;2023-03-26T15:26:10;100596.75;;;10.46;100.00
31005;BME280;17676;52.254;4.490;2023-03-26T15:31:48;100619.59;;;10.63;100.00
31005;BME280;17676;52.254;4.490;2023-03-26T15:45:29;100639.69;;;10.17;100.00
31005;BME280;17676;52.254;4.490;2023-03-26T15:59:14;100659.25;;;9.86;100.00
31005;BME280;17676;52.254;4.490;2023-03-26T16:02:07;100670.44;;;9.96;100.00
31005;BME280;17676;52.254;4.490;2023-03-26T16:15:33;100712.50;;;10.05;100.00
31005;BME280;17676;52.254;4.490;2023-03-26T16:23:28;100728.66;;;9.79;100.00
31005;BME280;17676;52.254;4.490;2023-03-26T16:26:13;100740.34;;;9.99;100.00
31005;BME280;17676;52.254;4.490;2023-03-26T16:33:47;100760.69;;;9.82;100.00
31005;BME280;17676;52.254;4.490;2023-03-26T16:41:30;100751.50;;;9.57;100.00
31005;BME280;17676;52.254;4.490;2023-03-26T16:46:36;100771.50;;;9.15;100.00
31005;BME280;17676;52.254;4.490;2023-03-26T16:55:12;100784.16;;;9.15;100.00
31005;BME280;17676;52.254;4.490;2023-03-26T16:57:46;100804.78;;;9.22;100.00
31005;BME280;17676;52.254;4.490;2023-03-26T17:00:41;100798.22;;;9.04;100.00
31005;BME280;17676;52.254;4.490;2023-03-26T17:13:26;100833.00;;;8.86;100.00
31005;BME280;17676;52.254;4.490;2023-03-26T17:21:23;100850.09;;;8.99;100.00
31005;BME280;17676;52.254;4.490;2023-03-26T17:24:06;100840.00;;;8.80;100.00
31005;BME280;17676;52.254;4.490;2023-03-26T17:26:48;100853.97;;;8.63;100.00
31005;BME280;17676;52.254;4.490;2023-03-26T17:32:13;100858.00;;;8.46;100.00
31005;BME280;17676;52.254;4.490;2023-03-26T17:34:40;100877.78;;;8.53;100.00
31005;BME280;17676;52.254;4.490;2023-03-26T17:45:19;100898.81;;;8.22;100.00
31005;BME280;17676;52.254;4.490;2023-03-26T17:47:53;100907.25;;;8.19;100.00
31005;BME280;17676;52.254;4.490;2023-03-26T17:50:29;100915.06;;;8.28;100.00
31005;BME280;17676;52.254;4.490;2023-03-26T17:53:19;100928.91;;;8.40;100.00
31005;BME280;17676;52.254;4.490;2023-03-26T17:55:47;100925.41;;;8.25;100.00
31005;BME280;17676;52.254;4.490;2023-03-26T18:01:06;100932.66;;;8.24;100.00
31005;BME280;17676;52.254;4.490;2023-03-26T18:03:35;100950.13;;;8.14;100.00
31005;BME280;17676;52.254;4.490;2023-03-26T18:06:10;100950.97;;;8.14;100.00
31005;BME280;17676;52.254;4.490;2023-03-26T18:08:56;100953.50;;;8.16;100.00
31005;BME280;17676;52.254;4.490;2023-03-26T18:16:48;100967.38;;;7.98;100.00
31005;BME280;17676;52.254;4.490;2023-03-26T18:19:17;100969.41;;;7.82;100.00
31005;BME280;17676;52.254;4.490;2023-03-26T18:21:55;100977.97;;;7.71;100.00
31005;BME280;17676;52.254;4.490;2023-03-26T18:27:05;100998.13;;;7.60;100.00
31005;BME280;17676;52.254;4.490;2023-03-26T18:29:33;100999.63;;;7.63;100.00
31005;BME280;17676;52.254;4.490;2023-03-26T18:34:37;101006.09;;;7.54;100.00
31005;BME280;17676;52.254;4.490;2023-03-26T18:37:18;101017.72;;;7.40;100.00
31005;BME280;17676;52.254;4.490;2023-03-26T18:40:00;101019.84;;;7.44;100.00
31005;BME280;17676;52.254;4.490;2023-03-26T18:42:36;101038.97;;;7.35;100.00
31005;BME280;17676;52.254;4.490;2023-03-26T18:45:08;101032.56;;;7.36;100.00
31005;BME280;17676;52.254;4.490;2023-03-26T18:47:35;101040.91;;;7.41;100.00
31005;BME280;17676;52.254;4.490;2023-03-26T18:50:04;101046.72;;;7.30;100.00